Map

Track Data

SID SEASON NUMBER BASIN SUBBASIN NAME ISO_TIME NATURE LAT LON WMO_WIND WMO_PRES WMO_AGENCY TRACK_TYPE DIST2LAND LANDFALL IFLAG USA_AGENCY USA_ATCF_ID USA_LAT USA_LON USA_RECORD USA_STATUS USA_WIND USA_PRES USA_SSHS USA_R34_NE USA_R34_SE USA_R34_SW USA_R34_NW USA_R50_NE USA_R50_SE USA_R50_SW USA_R50_NW USA_R64_NE USA_R64_SE USA_R64_SW USA_R64_NW USA_POCI USA_ROCI USA_RMW USA_EYE TOKYO_LAT TOKYO_LON TOKYO_GRADE TOKYO_WIND TOKYO_PRES TOKYO_R50_DIR TOKYO_R50_LONG TOKYO_R50_SHORT TOKYO_R30_DIR TOKYO_R30_LONG TOKYO_R30_SHORT TOKYO_LAND CMA_LAT CMA_LON CMA_CAT CMA_WIND CMA_PRES HKO_LAT HKO_LON HKO_CAT HKO_WIND HKO_PRES NEWDELHI_LAT NEWDELHI_LON NEWDELHI_GRADE NEWDELHI_WIND NEWDELHI_PRES NEWDELHI_CI NEWDELHI_DP NEWDELHI_POCI REUNION_LAT REUNION_LON REUNION_TYPE REUNION_WIND REUNION_PRES REUNION_TNUM REUNION_CI REUNION_RMW REUNION_R34_NE REUNION_R34_SE REUNION_R34_SW REUNION_R34_NW REUNION_R50_NE REUNION_R50_SE REUNION_R50_SW REUNION_R50_NW REUNION_R64_NE REUNION_R64_SE REUNION_R64_SW REUNION_R64_NW BOM_LAT BOM_LON BOM_TYPE BOM_WIND BOM_PRES BOM_TNUM BOM_CI BOM_RMW BOM_R34_NE BOM_R34_SE BOM_R34_SW BOM_R34_NW BOM_R50_NE BOM_R50_SE BOM_R50_SW BOM_R50_NW BOM_R64_NE BOM_R64_SE BOM_R64_SW BOM_R64_NW BOM_ROCI BOM_POCI BOM_EYE BOM_POS_METHOD BOM_PRES_METHOD NADI_LAT NADI_LON NADI_CAT NADI_WIND NADI_PRES WELLINGTON_LAT WELLINGTON_LON WELLINGTON_WIND WELLINGTON_PRES DS824_LAT DS824_LON DS824_STAGE DS824_WIND DS824_PRES TD9636_LAT TD9636_LON TD9636_STAGE TD9636_WIND TD9636_PRES TD9635_LAT TD9635_LON TD9635_WIND TD9635_PRES TD9635_ROCI NEUMANN_LAT NEUMANN_LON NEUMANN_CLASS NEUMANN_WIND NEUMANN_PRES MLC_LAT MLC_LON MLC_CLASS MLC_WIND MLC_PRES USA_GUST BOM_GUST BOM_GUST_PER REUNION_GUST REUNION_GUST_PER USA_SEAHGT USA_SEARAD_NE USA_SEARAD_SE USA_SEARAD_SW USA_SEARAD_NW STORM_SPEED STORM_DIR
1921275S28156 1922 50 SP EA NOT_NAMED 1921-10-01 12:00:00 NR -27.8000 155.800 main 220 210 __________O___ -1 -27.8000 155.800 7 3 282
1921275S28156 1922 50 SP EA NOT_NAMED 1921-10-01 15:00:00 NR -27.7735 155.656 main 210 201 __________P___ -1 -27.7735 155.656 7 2 271
1921275S28156 1922 50 SP EA NOT_NAMED 1921-10-01 18:00:00 NR -27.7976 155.600 main 201 198 __________P___ -1 -27.7976 155.600 7 2 161
1921275S28156 1922 50 SP EA NOT_NAMED 1921-10-01 21:00:00 NR -27.9231 155.718 main 208 208 __________P___ -1 -27.9231 155.718 7 6 132
1921275S28156 1922 50 SP EA NOT_NAMED 1921-10-02 00:00:00 NR -28.2000 156.100 main 244 244 __________O___ -1 -28.2000 156.100 7 12 127
1921275S28156 1922 50 SP EA NOT_NAMED 1921-10-02 03:00:00 NR -28.6518 156.807 main 311 311 __________P___ -1 -28.6518 156.807 7 18 124
1921275S28156 1922 50 SP EA NOT_NAMED 1921-10-02 06:00:00 NR -29.2023 157.785 main 409 409 __________P___ -1 -29.2023 157.785 7 22 120
1921275S28156 1922 50 SP EA NOT_NAMED 1921-10-02 09:00:00 NR -29.7511 158.947 main 522 522 __________P___ -1 -29.7511 158.947 7 23 115
1921275S28156 1922 50 SP MM NOT_NAMED 1921-10-02 12:00:00 NR -30.2000 160.200 main 653 653 __________O___ -1 -30.2000 160.200 7 23 107
1921275S28156 1922 50 SP MM NOT_NAMED 1921-10-02 15:00:00 NR -30.4541 161.530 main 782 782 __________P___ -1 -30.4541 161.530 7 24 100
1921275S28156 1922 50 SP MM NOT_NAMED 1921-10-02 18:00:00 NR -30.5899 162.899 main 916 905 __________P___ -1 -30.5899 162.899 7 23 94
1921275S28156 1922 50 SP MM NOT_NAMED 1921-10-02 21:00:00 NR -30.6295 164.168 main 897 817 __________P___ -1 -30.6295 164.168 7 20 90
1921275S28156 1922 50 SP MM NOT_NAMED 1921-10-03 00:00:00 NR -30.6000 165.200 main 817 776 __________O___ -1 -30.6000 165.200 7 14 86
1921275S28156 1922 50 SP MM NOT_NAMED 1921-10-03 03:00:00 NR -30.5337 165.828 main 776 753 __________P___ -1 -30.5337 165.828 7 9 78
1921275S28156 1922 50 SP MM NOT_NAMED 1921-10-03 06:00:00 NR -30.4213 166.214 main 753 738 __________P___ -1 -30.4213 166.214 7 6 67
1921275S28156 1922 50 SP MM NOT_NAMED 1921-10-03 09:00:00 NR -30.2986 166.468 main 738 731 __________P___ -1 -30.2986 166.468 7 5 62
1921275S28156 1922 50 SP MM NOT_NAMED 1921-10-03 12:00:00 NR -30.2000 166.700 main 731 717 __________O___ -1 -30.2000 166.700 7 5 72
1921275S28156 1922 50 SP MM NOT_NAMED 1921-10-03 15:00:00 NR -30.1302 167.068 main 711 691 __________P___ -1 -30.1302 167.068 7 6 81
1921275S28156 1922 50 SP MM NOT_NAMED 1921-10-03 18:00:00 NR -30.0943 167.436 main 691 665 __________P___ -1 -30.0943 167.436 7 6 88
1921275S28156 1922 50 SP MM NOT_NAMED 1921-10-03 21:00:00 NR -30.1114 167.812 main 665 632 __________P___ -1 -30.1114 167.812 7 7 99
1921275S28156 1922 50 SP MM NOT_NAMED 1921-10-04 00:00:00 NR -30.2000 168.200 main 632 599 __________O___ -1 -30.2000 168.200 7 7 109
1921275S28156 1922 50 SP MM NOT_NAMED 1921-10-04 03:00:00 NR -30.3580 168.626 main 591 550 __________P___ -1 -30.3580 168.626 7 8 117
1921275S28156 1922 50 SP MM NOT_NAMED 1921-10-04 06:00:00 NR -30.5878 169.064 main 544 494 __________P___ -1 -30.5878 169.064 7 9 125
1921275S28156 1922 50 SP MM NOT_NAMED 1921-10-04 09:00:00 NR -30.8737 169.495 main 494 445 __________P___ -1 -30.8737 169.495 7 9 130
1921275S28156 1922 50 SP MM NOT_NAMED 1921-10-04 12:00:00 NR -31.2000 169.900 main 445 392 __________O___ -1 -31.2000 169.900 7 9 139
1921275S28156 1922 50 SP MM NOT_NAMED 1921-10-04 15:00:00 NR -31.5738 170.202 main 392 340 __________P___ -1 -31.5738 170.202 7 9 147
1921275S28156 1922 50 SP MM NOT_NAMED 1921-10-04 18:00:00 NR -31.9772 170.483 main 340 296 __________P___ -1 -31.9772 170.483 7 9 147
1921275S28156 1922 50 SP MM NOT_NAMED 1921-10-04 21:00:00 NR -32.3671 170.798 main 287 238 __________P___ -1 -32.3671 170.798 7 9 140
1921275S28156 1922 50 SP MM NOT_NAMED 1921-10-05 00:00:00 NR -32.7000 171.200 main 238 196 __________O___ -1 -32.7000 171.200 7 10 125
1921275S28156 1922 50 SP MM NOT_NAMED 1921-10-05 03:00:00 NR -32.9401 171.761 main 193 157 __________P___ -1 -32.9401 171.761 7 11 112
1921275S28156 1922 50 SP MM NOT_NAMED 1921-10-05 06:00:00 NR -33.1138 172.410 main 157 144 __________P___ -1 -33.1138 172.410 7 12 104
1921275S28156 1922 50 SP MM NOT_NAMED 1921-10-05 09:00:00 NR -33.2305 173.104 main 145 136 __________P___ -1 -33.2305 173.104 7 12 99
1921275S28156 1922 50 SP MM NOT_NAMED 1921-10-05 12:00:00 NR -33.3000 173.800 main 152 152 __________O___ -1 -33.3000 173.800 7 11 95
1921275S28156 1922 50 SP MM NOT_NAMED 1921-10-05 15:00:00 NR -33.3329 174.463 main 192 192 __________P___ -1 -33.3329 174.463 7 11 92
1921275S28156 1922 50 SP MM NOT_NAMED 1921-10-05 18:00:00 NR -33.3383 175.093 main 223 223 __________P___ -1 -33.3383 175.093 7 10 90
1921275S28156 1922 50 SP MM NOT_NAMED 1921-10-05 21:00:00 NR -33.3246 175.702 main 254 254 __________P___ -1 -33.3246 175.702 7 10 88
1921275S28156 1922 50 SP MM NOT_NAMED 1921-10-06 00:00:00 NR -33.3000 176.300 main 288 __________O___ -1 -33.3000 176.300 7 10 87

Digital Typhoon Data and Search

About IBTrACS Database

This database is a web-friendly format of International Best Track Archive for Climate Stewardship (IBTrACS), a global best track data archive curated by NOAA dating back to 1842.

Updated: 2021-11-26